Aviation Digital Data Service (ADDS)

Output produced by TAFs form (1625 UTC 23 November 2017)
found at http://www.aviationweather.gov/adds/tafs/
 
METAR text: ZBTJ 231600Z 31003MPS CAVOK 01/M17 Q1027 NOSIG
Conditions at: ZBTJ (TIANJIN/ZHANGGUI, CN) observed 1600 UTC 23 November 2017
Temperature: 1.0°C (34°F)
Dewpoint: -17.0°C (1°F) [RH = 25%]
Pressure (altimeter): 30.32 inches Hg (1027.0 mb)
Winds: from the NW (310 degrees) at 7 MPH (6 knots; 3.1 m/s)
Visibility: 6 or more miles (10+ km)
Ceiling: ceiling and visibility are OK
Clouds: unknown
Weather: no significant weather observed at this time

Forecast for: ZBTJ (TIANJIN/ZHANGGUI, CN)
Text: TAF ZBTJ 231516Z 2318/2418 23004MPS CAVOK TX07/2407Z TNM03/22Z
Forecast period: 1800 UTC 23 November 2017 to 1800 UTC 24 November 2017
Forecast type: FROM: standard forecast or significant change
Winds: from the SW (230 degrees) at 9 MPH (8 knots; 4.2 m/s)
Visibility: 6 or more miles (10+ km)
Clouds: not forecast
Temperature: minimum -3.0°C (27°F) expected at 2200 UTC
Weather: no significant weather forecast for this period